Time;durP1;ratioP1;P1;durP2;ratioP2;P2;SDS_P1;SDS_P2;PMS_P1;PMS_P2;Temp;Humidity;BMP_temperature;BMP_pressure;BME280_temperature;BME280_humidity;BME280_pressure;Samples;Min_cycle;Max_cycle;Signal;HPM_P1;HPM_P2
2022/05/21 00:02:25;;;;;;;13.45;6.57;;;9.10;99.90;;;;;;5015698;28;20054;-42
2022/05/21 00:04:51;;;;;;;14.63;7.50;;;9.60;99.90;;;;;;5023259;28;20041;-42
2022/05/21 00:07:22;;;;;;;18.55;7.63;;;9.50;99.90;;;;;;5014138;28;20042;-42
2022/05/21 00:09:48;;;;;;;13.50;8.05;;;9.30;99.90;;;;;;5015078;28;20128;-42
2022/05/21 00:12:14;;;;;;;15.55;9.50;;;9.10;99.90;;;;;;5016742;28;20125;-42
2022/05/21 00:14:39;;;;;;;14.80;7.40;;;9.20;99.90;;;;;;4997157;28;20050;-42
2022/05/21 00:17:05;;;;;;;14.45;8.75;;;9.10;99.90;;;;;;5013546;28;20038;-42
2022/05/21 00:19:31;;;;;;;14.93;6.63;;;9.20;99.90;;;;;;5024848;28;20107;-42
2022/05/21 00:21:56;;;;;;;22.55;10.18;;;9.20;99.90;;;;;;5025771;28;20482;-43
2022/05/21 00:24:22;;;;;;;24.50;10.73;;;9.20;99.90;;;;;;5014462;28;20053;-42
2022/05/21 00:26:48;;;;;;;18.10;9.18;;;9.20;99.90;;;;;;5014438;28;20042;-42
2022/05/21 00:29:14;;;;;;;19.00;8.20;;;9.20;99.90;;;;;;5014129;28;20057;-42
2022/05/21 00:31:40;;;;;;;20.65;10.18;;;9.20;99.90;;;;;;5013489;28;20490;-43
2022/05/21 00:34:05;;;;;;;20.27;9.73;;;9.30;99.90;;;;;;5015165;28;20084;-42
2022/05/21 00:36:31;;;;;;;21.23;10.88;;;9.20;99.90;;;;;;5012373;28;20045;-42
2022/05/21 00:38:57;;;;;;;25.02;13.05;;;9.70;99.90;;;;;;5013180;28;20096;-42
2022/05/21 00:41:22;;;;;;;26.15;14.18;;;9.40;99.90;;;;;;5013695;28;20041;-42
2022/05/21 00:43:59;;;;;;;32.65;15.32;;;9.40;99.90;;;;;;5014146;28;20084;-43
2022/05/21 00:46:29;;;;;;;32.80;14.73;;;9.50;99.90;;;;;;5013842;28;20443;-42
2022/05/21 00:49:09;;;;;;;35.33;18.60;;;9.60;99.90;;;;;;5014564;28;20081;-43
2022/05/21 00:51:44;;;;;;;34.17;16.25;;;9.60;99.90;;;;;;5012551;28;20053;-43
2022/05/21 00:54:11;;;;;;;32.08;18.13;;;9.80;99.90;;;;;;5013602;28;20038;-43
2022/05/21 00:56:43;;;;;;;36.67;21.33;;;9.90;99.90;;;;;;5014051;28;20050;-42
2022/05/21 01:01:58;;;;;;;39.22;20.50;;;10.00;99.90;;;;;;5013492;28;20053;-42
2022/05/21 01:04:25;;;;;;;35.38;21.63;;;10.20;99.90;;;;;;5012953;28;20490;-43
2022/05/21 01:06:55;;;;;;;42.72;23.23;;;10.20;99.90;;;;;;5012961;28;20038;-43
2022/05/21 01:09:21;;;;;;;38.55;22.20;;;10.30;99.90;;;;;;5012387;28;20489;-43
2022/05/21 01:11:47;;;;;;;40.60;23.35;;;10.30;99.90;;;;;;5016972;28;20042;-42
2022/05/21 01:14:15;;;;;;;43.17;22.55;;;10.20;99.90;;;;;;5028377;28;21800;-43
2022/05/21 01:16:42;;;;;;;38.17;21.52;;;10.40;99.90;;;;;;5019298;28;20053;-43
2022/05/21 01:19:11;;;;;;;48.47;26.67;;;10.30;99.90;;;;;;5021778;28;20513;-42
2022/05/21 01:21:38;;;;;;;49.67;27.60;;;10.40;99.90;;;;;;5014250;28;20136;-43
2022/05/21 01:24:05;;;;;;;50.70;26.42;;;10.40;99.90;;;;;;5013251;28;20076;-43
2022/05/21 01:26:32;;;;;;;49.22;26.00;;;10.50;99.90;;;;;;5013612;28;20046;-43
2022/05/21 01:28:59;;;;;;;41.30;25.27;;;10.60;99.90;;;;;;5013488;28;20180;-43
2022/05/21 01:31:25;;;;;;;48.10;28.85;;;10.70;99.90;;;;;;5013253;28;20103;-43
2022/05/21 01:33:51;;;;;;;57.17;31.17;;;10.70;99.90;;;;;;5013226;28;20053;-43
2022/05/21 01:36:17;;;;;;;50.22;30.00;;;10.70;99.90;;;;;;5012676;28;20486;-43
2022/05/21 01:38:43;;;;;;;58.65;31.88;;;10.80;99.90;;;;;;5013015;28;20056;-43
2022/05/21 01:41:09;;;;;;;51.75;29.92;;;10.80;99.90;;;;;;5013492;28;20041;-43
2022/05/21 01:46:21;;;;;;;49.08;29.65;;;10.80;99.90;;;;;;5013264;28;20414;-43
2022/05/21 01:48:47;;;;;;;56.47;29.58;;;10.90;99.90;;;;;;5014022;28;20054;-42
2022/05/21 01:51:13;;;;;;;54.47;27.20;;;11.10;99.90;;;;;;5012981;28;20046;-43
2022/05/21 01:53:40;;;;;;;50.15;27.40;;;11.00;99.90;;;;;;5012308;28;20050;-43
2022/05/21 01:56:08;;;;;;;59.45;26.02;;;11.00;99.90;;;;;;5026932;28;20045;-42
2022/05/21 01:58:34;;;;;;;53.58;29.17;;;11.00;99.90;;;;;;5015955;28;20046;-43
2022/05/21 02:01:00;;;;;;;59.72;34.55;;;11.00;99.90;;;;;;5013391;28;20112;-42
2022/05/21 02:03:26;;;;;;;62.45;36.17;;;11.20;99.90;;;;;;5006376;28;20049;-43
2022/05/21 02:05:57;;;;;;;61.95;33.47;;;11.10;99.90;;;;;;5000409;28;20053;-44
2022/05/21 02:08:23;;;;;;;48.35;28.92;;;11.20;99.90;;;;;;5013706;28;20156;-43
2022/05/21 02:10:51;;;;;;;44.75;25.65;;;11.20;99.90;;;;;;5014250;28;20577;-44
2022/05/21 02:13:43;;;;;;;48.53;27.67;;;11.30;99.90;;;;;;5015842;28;20049;-44
2022/05/21 02:16:09;;;;;;;55.90;31.23;;;11.40;99.90;;;;;;5028364;28;20081;-43
2022/05/21 02:18:35;;;;;;;52.28;30.67;;;11.60;99.90;;;;;;5036881;28;20505;-43
2022/05/21 02:21:01;;;;;;;39.78;23.90;;;11.70;99.90;;;;;;5035093;28;20480;-43
2022/05/21 02:23:27;;;;;;;44.63;24.90;;;11.80;99.90;;;;;;5018176;28;20057;-43
2022/05/21 02:25:52;;;;;;;50.35;24.40;;;11.90;99.90;;;;;;5016212;28;20054;-43
2022/05/21 02:28:18;;;;;;;39.65;22.85;;;12.00;99.90;;;;;;5025552;28;20045;-43
2022/05/21 02:30:44;;;;;;;32.42;17.42;;;12.00;99.90;;;;;;5020770;28;20232;-43
2022/05/21 02:33:10;;;;;;;49.97;19.48;;;12.10;99.90;;;;;;5015932;28;20501;-43
2022/05/21 02:35:36;;;;;;;35.83;17.52;;;12.10;99.90;;;;;;5016265;28;20050;-43
2022/05/21 02:40:47;;;;;;;29.88;15.27;;;12.20;99.90;;;;;;5005887;28;20104;-43
2022/05/21 02:43:13;;;;;;;26.42;14.50;;;;;;;;;;5015812;28;20053;-43
2022/05/21 02:45:39;;;;;;;29.50;13.55;;;;;;;;;;5015673;28;20053;-43
2022/05/21 02:48:05;;;;;;;39.35;13.50;;;;;;;;;;5015735;28;20096;-43
2022/05/21 02:50:33;;;;;;;23.52;11.00;;;;;;;;;;5015118;28;20052;-44
2022/05/21 02:53:04;;;;;;;38.05;12.15;;;;;;;;;;5014182;28;20084;-44
2022/05/21 02:55:30;;;;;;;28.30;10.38;;;;;;;;;;5029686;28;20042;-43
2022/05/21 02:57:56;;;;;;;35.53;12.18;;;;;;;;;;5015549;28;20049;-43
2022/05/21 03:00:24;;;;;;;28.58;10.20;;;;;;;;;;5021600;28;20140;-43
2022/05/21 03:02:50;;;;;;;31.52;11.43;;;;;;;;;;5023579;28;20042;-44
2022/05/21 03:05:17;;;;;;;25.90;8.60;;;;;;;;;;5015001;28;20054;-43
2022/05/21 03:07:47;;;;;;;28.23;8.77;;;;;;;;;;5015100;28;20093;-43
2022/05/21 03:10:23;;;;;;;28.30;8.00;;;;;;;;;;5015405;28;20134;-43
2022/05/21 03:12:55;;;;;;;22.38;7.13;;;;;;;;;;5018476;28;20046;-43
2022/05/21 03:15:27;;;;;;;31.10;8.32;;;;;;;;;;5016284;28;20085;-43
2022/05/21 03:17:53;;;;;;;23.02;7.13;;;;;;;;;;5023762;28;20095;-43
2022/05/21 03:20:20;;;;;;;31.38;8.07;;;;;;;;;;5035506;28;20052;-43
2022/05/21 03:22:46;;;;;;;26.27;7.40;;;;;;;;;;5034744;28;20037;-43
2022/05/21 03:25:12;;;;;;;25.65;6.82;;;;;;;;;;5035885;28;20048;-43
2022/05/21 03:27:39;;;;;;;23.85;7.07;;;;;;;;;;5035871;28;20124;-43
2022/05/21 03:30:07;;;;;;;16.13;4.65;;;;;;;;;;5025133;28;20060;-43
2022/05/21 03:32:33;;;;;;;22.45;5.60;;;;;;;;;;5014387;28;20050;-43
2022/05/21 03:34:59;;;;;;;20.75;6.30;;;;;;;;;;5025288;28;20049;-42
2022/05/21 03:37:26;;;;;;;16.90;4.97;;;;;;;;;;5019377;28;20069;-43
2022/05/21 03:39:52;;;;;;;26.48;6.50;;;;;;;;;;5014301;28;20051;-44
2022/05/21 03:42:19;;;;;;;19.33;5.18;;;;;;;;;;5014819;28;20128;-43
2022/05/21 03:44:46;;;;;;;37.90;6.47;;;;;;;;;;5015364;28;20054;-44
2022/05/21 03:47:12;;;;;;;21.42;6.43;;;;;;;;;;5014912;28;20050;-43
2022/05/21 03:49:38;;;;;;;16.63;5.32;;;;;;;;;;5014843;28;20425;-43
2022/05/21 03:52:06;;;;;;;22.58;6.63;;;;;;;;;;5014465;28;20049;-44
2022/05/21 03:54:32;;;;;;;19.58;4.95;;;;;;;;;;5014130;28;20134;-44
2022/05/21 03:56:59;;;;;;;22.92;5.85;;;;;;;;;;5013930;28;20038;-43
2022/05/21 03:59:25;;;;;;;23.42;5.93;;;;;;;;;;5014351;28;20069;-44
2022/05/21 04:01:51;;;;;;;27.27;5.45;;;;;;;;;;5014784;28;20059;-43
2022/05/21 04:04:17;;;;;;;19.30;5.22;;;;;;;;;;5014339;28;20046;-44
2022/05/21 04:06:43;;;;;;;18.27;4.95;;;;;;;;;;5015208;28;20077;-44
2022/05/21 04:09:10;;;;;;;17.90;4.68;;;;;;;;;;5012954;28;20413;-43
2022/05/21 04:11:36;;;;;;;19.15;4.88;;;;;;;;;;5017711;28;20047;-44
2022/05/21 04:14:02;;;;;;;19.80;4.60;;;;;;;;;;5014815;28;20474;-44
2022/05/21 04:16:28;;;;;;;11.82;4.40;;;;;;;;;;5015069;28;20042;-45
2022/05/21 04:18:54;;;;;;;19.25;4.65;;;;;;;;;;5014062;28;20081;-44
2022/05/21 04:21:20;;;;;;;19.38;5.00;;;;;;;;;;5014640;28;20061;-43
2022/05/21 04:23:46;;;;;;;13.43;3.20;;;;;;;;;;5013959;28;20509;-44
2022/05/21 04:26:12;;;;;;;14.18;3.58;;;;;;;;;;4996609;28;20500;-44
2022/05/21 04:28:39;;;;;;;9.85;3.00;;;;;;;;;;5014194;28;20561;-44
2022/05/21 04:31:05;;;;;;;23.88;4.40;;;;;;;;;;5008364;28;20062;-43
2022/05/21 04:33:31;;;;;;;13.73;3.75;;;;;;;;;;5013660;28;20050;-44
2022/05/21 04:38:42;;;;;;;11.18;2.70;;;;;;;;;;5013688;28;20141;-44
2022/05/21 04:41:08;;;;;;;11.70;3.60;;;;;;;;;;5012546;28;20050;-45
2022/05/21 04:43:34;;;;;;;14.70;3.33;;;;;;;;;;5013091;28;20116;-44
2022/05/21 04:46:00;;;;;;;14.15;3.40;;;;;;;;;;5012393;28;20489;-44
2022/05/21 04:48:26;;;;;;;10.68;3.08;;;;;;;;;;5013849;28;20587;-44
2022/05/21 04:50:53;;;;;;;14.18;3.50;;;;;;;;;;5017245;28;20463;-44
2022/05/21 04:53:19;;;;;;;16.25;3.17;;;;;;;;;;5012890;28;20389;-45
2022/05/21 04:55:45;;;;;;;28.20;5.55;;;;;;;;;;5014337;28;20054;-44
2022/05/21 04:58:11;;;;;;;19.25;4.05;;;;;;;;;;5011731;28;20200;-44
2022/05/21 05:00:37;;;;;;;13.20;3.08;;;;;;;;;;5013903;28;20041;-44
2022/05/21 05:03:03;;;;;;;17.83;4.18;;;;;;;;;;5013713;28;20042;-44
2022/05/21 05:05:29;;;;;;;15.15;2.80;;;;;;;;;;5013370;28;20049;-44
2022/05/21 05:07:55;;;;;;;13.55;3.08;;;;;;;;;;5014442;28;20050;-44
2022/05/21 05:10:22;;;;;;;17.85;3.40;;;;;;;;;;5013243;28;20049;-44
2022/05/21 05:12:48;;;;;;;19.45;3.08;;;;;;;;;;5027953;28;20116;-44
2022/05/21 05:15:14;;;;;;;23.92;3.25;;;;;;;;;;5028318;28;20096;-44
2022/05/21 05:17:40;;;;;;;14.15;2.95;;;;;;;;;;5013853;28;20132;-44
2022/05/21 05:20:07;;;;;;;22.20;4.22;;;;;;;;;;5013192;28;20049;-43
2022/05/21 05:22:33;;;;;;;16.33;3.80;;;;;;;;;;5029177;28;20080;-43
2022/05/21 05:25:02;;;;;;;19.42;3.85;;;;;;;;;;5033429;28;20128;-43
2022/05/21 05:27:29;;;;;;;19.90;3.70;;;;;;;;;;5019828;28;20050;-43
2022/05/21 05:29:55;;;;;;;13.07;2.97;;;;;;;;;;5012576;28;20068;-45
2022/05/21 05:32:21;;;;;;;16.13;3.90;;;;;;;;;;5029341;28;20050;-42
2022/05/21 05:34:47;;;;;;;12.98;2.92;;;;;;;;;;5033385;28;20111;-42
2022/05/21 05:37:13;;;;;;;12.23;2.88;;;;;;;;;;5013232;28;20413;-42
2022/05/21 05:39:39;;;;;;;13.18;3.40;;;;;;;;;;5013923;28;20057;-42
2022/05/21 05:42:05;;;;;;;15.15;3.50;;;;;;;;;;5015965;28;20049;-42
2022/05/21 05:44:32;;;;;;;21.95;3.45;;;;;;;;;;5013601;28;20041;-42
2022/05/21 05:46:58;;;;;;;13.07;3.25;;;;;;;;;;5016056;28;20120;-42
2022/05/21 05:49:24;;;;;;;10.85;2.38;;;;;;;;;;5017401;28;20103;-42
2022/05/21 05:51:51;;;;;;;13.18;2.35;;;;;;;;;;5016574;28;20405;-42
2022/05/21 05:54:17;;;;;;;20.40;3.40;;;;;;;;;;5019525;28;20049;-42
2022/05/21 05:56:44;;;;;;;15.00;3.53;;;;;;;;;;5017049;28;20125;-41
2022/05/21 06:02:57;;;;;;;15.95;3.08;;;;;;;;;;5016177;28;20054;-41
2022/05/21 06:04:41;;;;;;;10.05;2.33;;;;;;;;;;5017619;28;20053;-37
2022/05/21 06:07:15;;;;;;;14.50;3.85;;;;;;;;;;4999981;28;20045;-39
2022/05/21 06:09:41;;;;;;;13.88;2.78;;;;;;;;;;5015111;28;20402;-38
2022/05/21 06:12:08;;;;;;;14.05;2.80;;;;;;;;;;5027540;28;20140;-36
2022/05/21 06:14:37;;;;;;;15.85;3.03;;;;;;;;;;5017380;28;20152;-34
2022/05/21 06:17:03;;;;;;;10.40;3.08;;;;;;;;;;5016897;28;20054;-34
2022/05/21 06:19:29;;;;;;;15.68;3.20;;;;;;;;;;5015644;28;20129;-34
2022/05/21 06:21:59;;;;;;;15.65;3.25;;;;;;;;;;5024541;28;20045;-35
2022/05/21 06:24:25;;;;;;;13.93;2.58;;;;;;;;;;5025132;28;20053;-33
2022/05/21 06:26:51;;;;;;;19.40;3.10;;;;;;;;;;5015913;28;20444;-33
2022/05/21 06:29:17;;;;;;;20.52;3.60;;;;;;;;;;5016019;28;20100;-33
2022/05/21 06:31:44;;;;;;;11.30;2.35;;;;;;;;;;5016638;28;20129;-34
2022/05/21 06:34:10;;;;;;;12.13;2.95;;;;;;;;;;5016488;28;20081;-32
2022/05/21 06:36:36;;;;;;;13.20;3.08;;;;;;;;;;5028129;28;20050;-32
2022/05/21 06:39:03;;;;;;;14.75;2.85;;;;;;;;;;5019519;28;20045;-31
2022/05/21 06:41:31;;;;;;;14.25;3.20;;;;;;;;;;5023219;28;20450;-34
2022/05/21 06:43:57;;;;;;;13.75;3.95;;;;;;;;;;5016466;28;20096;-31
2022/05/21 06:46:24;;;;;;;12.52;3.92;;;;;;;;;;5016415;28;20107;-31
2022/05/21 06:48:50;;;;;;;14.95;3.55;;;;;;;;;;5016552;28;20041;-31
2022/05/21 06:51:16;;;;;;;12.10;3.15;;;;;;;;;;5016238;28;20048;-32
2022/05/21 06:53:43;;;;;;;10.05;2.35;;;;;;;;;;5016543;28;20046;-32
2022/05/21 06:56:16;;;;;;;13.77;3.13;;;;;;;;;;5015266;28;20501;-31
2022/05/21 06:58:42;;;;;;;11.57;2.75;;;;;;;;;;5035010;28;20053;-31
2022/05/21 07:01:09;;;;;;;11.63;2.58;;;;;;;;;;5035867;28;20057;-31
2022/05/21 07:03:35;;;;;;;16.60;3.20;;;;;;;;;;5035764;28;20136;-30
2022/05/21 07:08:47;;;;;;;12.57;2.25;;;;;;;;;;5035749;28;20136;-30
2022/05/21 07:11:13;;;;;;;17.00;2.83;;;;;;;;;;5020319;28;20108;-30
2022/05/21 07:13:40;;;;;;;20.77;3.78;;;;;;;;;;5021217;28;20044;-31
2022/05/21 07:16:06;;;;;;;14.93;2.97;;;;;;;;;;5022453;28;20045;-31
2022/05/21 07:18:32;;;;;;;14.65;2.65;;;;;;;;;;5025268;28;20041;-29
2022/05/21 07:20:58;;;;;;;16.00;2.83;;;;;;;;;;5025958;28;20089;-29
2022/05/21 07:23:26;;;;;;;12.50;3.05;;;;;;;;;;5027306;28;20417;-30
2022/05/21 07:25:52;;;;;;;11.32;3.28;;;;;;;;;;5023167;28;20493;-29
2022/05/21 07:28:19;;;;;;;11.73;2.25;;;;;;;;;;5016814;28;20057;-30
2022/05/21 07:30:45;;;;;;;12.40;3.38;;;;;;;;;;5021453;28;20218;-29
2022/05/21 07:33:13;;;;;;;12.07;3.28;;;;;;;;;;5026705;28;20049;-29
2022/05/21 07:35:39;;;;;;;13.00;3.22;;;;;;;;;;5034031;28;20084;-28
2022/05/21 07:38:06;;;;;;;16.60;4.28;;;;;;;;;;5034029;28;20484;-30
2022/05/21 07:40:32;;;;;;;12.30;2.83;;;;;;;;;;5034144;28;20045;-29
2022/05/21 07:42:58;;;;;;;12.95;3.08;;;;;;;;;;5035025;28;20046;-29
2022/05/21 07:45:24;;;;;;;10.18;2.17;;;;;;;;;;5034105;28;20045;-29
2022/05/21 07:47:50;;;;;;;14.32;2.50;;;;;;;;;;5033980;28;20485;-29
2022/05/21 07:50:17;;;;;;;10.50;2.45;;;;;;;;;;5034913;28;20053;-28
2022/05/21 07:52:44;;;;;;;21.17;4.30;;;;;;;;;;5034737;28;20045;-28
2022/05/21 07:55:10;;;;;;;13.30;2.47;;;;;;;;;;5034434;28;20041;-29
2022/05/21 07:57:36;;;;;;;14.75;2.78;;;;;;;;;;5034748;28;20076;-28
2022/05/21 08:00:05;;;;;;;17.95;3.00;;;;;;;;;;5034625;28;20056;-29
2022/05/21 08:02:31;;;;;;;11.52;2.35;;;;;;;;;;5016535;28;20164;-29
2022/05/21 08:04:57;;;;;;;14.27;2.15;;;;;;;;;;5014848;28;20107;-28
2022/05/21 08:07:23;;;;;;;13.05;2.40;;;;;;;;;;5014845;28;20050;-29
2022/05/21 08:09:49;;;;;;;13.48;2.95;;;;;;;;;;5013650;28;20049;-29
2022/05/21 08:12:17;;;;;;;18.50;2.72;;;;;;;;;;5014005;28;20089;-28
2022/05/21 08:14:43;;;;;;;16.15;2.97;;;;;;;;;;5014088;28;20442;-29
2022/05/21 08:17:09;;;;;;;23.92;3.95;;;;;;;;;;5013527;28;20053;-28
2022/05/21 08:19:40;;;;;;;13.02;2.97;;;;;;;;;;5030064;28;20052;-28
2022/05/21 08:27:41;;;;;;;9.68;2.88;;;;;;;;;;5034574;28;20056;-30
2022/05/21 08:30:07;;;;;;;12.93;3.58;;;;;;;;;;5034033;28;20144;-28
2022/05/21 08:32:36;;;;;;;13.20;2.65;;;;;;;;;;5034612;28;20049;-30
2022/05/21 08:35:02;;;;;;;14.43;2.25;;;;;;;;;;5033935;28;20401;-28
2022/05/21 08:37:28;;;;;;;14.00;2.63;;;;;;;;;;5034059;28;20053;-28
2022/05/21 08:39:54;;;;;;;12.70;2.38;;;;;;;;;;5034642;28;20124;-29
2022/05/21 08:42:31;;;;;;;11.73;2.40;;;;;;;;;;5033987;28;20091;-28
2022/05/21 08:45:05;;;;;;;13.25;2.45;;;;;;;;;;5031671;28;20048;-29
2022/05/21 08:47:36;;;;;;;11.20;2.15;;;;;;;;;;5028308;28;20045;-28
2022/05/21 08:50:15;;;;;;;12.20;2.53;;;;;;;;;;5034453;28;20492;-28
2022/05/21 08:52:42;;;;;;;10.95;3.25;;;;;;;;;;5033733;28;20045;-28
2022/05/21 08:55:09;;;;;;;7.47;1.70;;;;;;;;;;5023604;28;20124;-28
2022/05/21 08:57:41;;;;;;;15.90;2.75;;;;;;;;;;5010821;28;20125;-28
2022/05/21 09:00:17;;;;;;;11.70;3.10;;;;;;;;;;5013592;28;20466;-29
2022/05/21 09:02:43;;;;;;;15.20;2.40;;;;;;;;;;5027940;28;20045;-28
2022/05/21 09:05:12;;;;;;;13.35;2.65;;;;;;;;;;5033657;28;20045;-28
2022/05/21 09:07:47;;;;;;;18.15;2.50;;;;;;;;;;5033628;28;20049;-29
2022/05/21 09:10:13;;;;;;;11.25;2.25;;;;;;;;;;5034150;28;20421;-29
2022/05/21 09:12:43;;;;;;;8.63;1.50;;;;;;;;;;5033552;28;20397;-29
2022/05/21 09:16:54;;;;;;;13.70;2.30;;;;;;;;;;5031014;28;20050;-28
2022/05/21 09:18:01;;;;;;;9.73;2.42;;;;;;;;;;5026869;28;20046;-28
2022/05/21 09:20:30;;;;;;;9.98;1.92;;;;;;;;;;5028997;28;20057;-28
2022/05/21 09:23:01;;;;;;;11.15;2.97;;;;;;;;;;5040226;28;20047;-28
2022/05/21 09:25:27;;;;;;;9.55;1.98;;;;;;;;;;5020302;28;20508;-29
2022/05/21 09:28:10;;;;;;;6.90;1.52;;;;;;;;;;5038929;28;20046;-28
2022/05/21 09:30:36;;;;;;;;;;;;;;;;;;5040033;28;20053;-28
2022/05/21 09:33:21;;;;;;;10.65;2.30;;;;;;;;;;5040736;28;19928;-28
2022/05/21 09:35:54;;;;;;;8.73;1.98;;;;;;;;;;5040573;28;20049;-28
2022/05/21 09:38:22;;;;;;;9.05;2.35;;;;;;;;;;5022930;28;20486;-28
2022/05/21 09:40:49;;;;;;;9.45;1.95;;;;;;;;;;5038771;28;20408;-29
2022/05/21 09:46:15;;;;;;;10.60;2.15;;;;;;;;;;5039137;28;20397;-29
2022/05/21 09:48:46;;;;;;;10.10;2.05;;;;;;;;;;5039876;28;20050;-28
2022/05/21 09:51:33;;;;;;;8.48;1.75;;;;;;;;;;5040183;28;20052;-28
2022/05/21 09:54:00;;;;;;;7.82;1.70;;;;;;;;;;5039721;28;20136;-28
2022/05/21 09:56:27;;;;;;;15.90;3.20;;;;;;;;;;5023684;28;20046;-28
2022/05/21 09:59:08;;;;;;;13.52;2.30;;;;;;;;;;5019913;28;20103;-28
2022/05/21 10:01:37;;;;;;;8.23;2.05;;;;;;;;;;5020165;28;20497;-28
2022/05/21 10:04:32;;;;;;;14.05;3.03;;;;;;;;;;5019586;28;20520;-29
2022/05/21 10:07:03;;;;;;;8.48;1.73;;;;;;;;;;5014870;28;20050;-30
2022/05/21 10:12:37;;;;;;;7.20;1.42;;;;;;;;;;5019845;28;20477;-28
2022/05/21 10:15:06;;;;;;;11.10;2.38;;;;;;;;;;5020436;28;20185;-28
2022/05/21 10:17:34;;;;;;;11.00;1.58;;;;;;;;;;5037331;28;20471;-28
2022/05/21 10:20:22;;;;;;;8.88;2.00;;;;;;;;;;5039622;28;20049;-28
2022/05/21 10:22:54;;;;;;;15.02;2.97;;;;;;;;;;5039024;28;20052;-28
2022/05/21 10:25:21;;;;;;;7.78;2.25;;;;;;;;;;5039825;28;20046;-28
2022/05/21 10:28:12;;;;;;;9.57;2.63;;;;;;;;;;5019715;28;20107;-28
2022/05/21 10:30:38;;;;;;;8.68;2.15;;;;;;;;;;5017865;28;20058;-28
2022/05/21 10:33:13;;;;;;;8.63;2.05;;;;;;;;;;5017087;28;20049;-28
2022/05/21 10:35:39;;;;;;;9.10;2.25;;;;;;;;;;5017178;28;20105;-28
2022/05/21 10:38:10;;;;;;;15.30;2.20;;;;;;;;;;5016524;28;20057;-28
2022/05/21 10:40:48;;;;;;;5.97;1.45;;;;;;;;;;5016018;28;20410;-28
2022/05/21 10:43:35;;;;;;;10.20;2.47;;;;;;;;;;5016704;28;20045;-28
2022/05/21 10:46:15;;;;;;;10.18;2.05;;;;;;;;;;5019161;28;20037;-28
2022/05/21 10:48:55;;;;;;;9.15;2.10;;;;;;;;;;5036399;28;20124;-28
2022/05/21 10:51:27;;;;;;;11.13;2.72;;;;;;;;;;5028658;28;20133;-28
2022/05/21 10:54:20;;;;;;;13.32;2.45;;;;;;;;;;5036212;28;20042;-28
2022/05/21 10:56:48;;;;;;;8.57;1.83;;;;;;;;;;5036018;28;20120;-28
2022/05/21 10:59:14;;;;;;;15.50;2.33;;;;;;;;;;5033595;28;20053;-28
2022/05/21 11:01:53;;;;;;;12.93;2.40;;;;;;;;;;5023502;28;20136;-28
2022/05/21 11:04:31;;;;;;;10.63;2.33;;;;;;;;;;5014936;28;20044;-27
2022/05/21 11:07:12;;;;;;;9.55;2.13;;;;;;;;;;5030720;28;20054;-28
2022/05/21 11:09:49;;;;;;;8.80;1.67;;;;;;;;;;5033647;28;20095;-28
2022/05/21 11:12:30;;;;;;;9.48;1.60;;;;;;;;;;5035628;28;20049;-27
2022/05/21 11:14:59;;;;;;;7.05;1.63;;;;;;;;;;5035661;28;20091;-28
2022/05/21 11:17:28;;;;;;;7.55;1.90;;;;;;;;;;5033349;28;20049;-28
2022/05/21 11:19:57;;;;;;;9.80;1.50;;;;;;;;;;5014557;28;20050;-28
2022/05/21 11:22:26;;;;;;;13.88;2.00;;;;;;;;;;5026110;28;20497;-28
2022/05/21 11:25:09;;;;;;;12.13;2.00;;;;;;;;;;5035453;28;20444;-27
2022/05/21 11:27:37;;;;;;;9.90;2.33;;;;;;;;;;5036031;28;20050;-28
2022/05/21 11:30:04;;;;;;;9.40;1.85;;;;;;;;;;5014761;28;20052;-28
2022/05/21 11:38:02;;;;;;;14.43;2.70;;;;;;;;;;5015473;28;20072;-28
2022/05/21 11:40:49;;;;;;;7.97;1.88;;;;;;;;;;5015211;28;20038;-29
2022/05/21 11:43:22;;;;;;;9.48;1.55;;;;;;;;;;5015289;28;20049;-28
2022/05/21 11:46:01;;;;;;;9.68;2.15;;;;;;;;;;5033745;28;20083;-28
2022/05/21 11:48:28;;;;;;;9.73;2.05;;;;;;;;;;5034441;28;20446;-28
2022/05/21 11:51:16;;;;;;;9.10;2.03;;;;;;;;;;5034906;28;20493;-28
2022/05/21 11:53:42;;;;;;;12.18;2.38;;;;;;;;;;5034382;28;20515;-27
2022/05/21 11:56:10;;;;;;;10.02;2.33;;;;;;;;;;5027039;28;20037;-28
2022/05/21 11:58:57;;;;;;;9.38;2.00;;;;;;;;;;5034703;28;20049;-28
2022/05/21 12:01:39;;;;;;;9.38;2.58;;;;;;;;;;5034117;28;20379;-27
2022/05/21 12:04:06;;;;;;;10.52;1.98;;;;;;;;;;5034659;28;20038;-27
2022/05/21 12:06:38;;;;;;;5.30;1.63;;;;;;;;;;5020113;28;20053;-28
2022/05/21 12:09:11;;;;;;;12.80;2.35;;;;;;;;;;5015487;28;20046;-28
2022/05/21 12:11:40;;;;;;;6.65;1.55;;;;;;;;;;5015070;28;20460;-28
2022/05/21 12:14:20;;;;;;;7.35;1.45;;;;;;;;;;5014639;28;20112;-28
2022/05/21 12:16:52;;;;;;;5.40;1.23;;;;;;;;;;5013556;28;20082;-28
2022/05/21 12:19:37;;;;;;;8.43;2.03;;;;;;;;;;5015555;28;20045;-28
2022/05/21 12:22:04;;;;;;;7.10;2.00;;;;;;;;;;5014668;28;20049;-27
2022/05/21 12:24:35;;;;;;;7.60;1.65;;;;;;;;;;5014636;28;20507;-28
2022/05/21 12:27:06;;;;;;;7.55;1.67;;;;;;;;;;5014663;28;20046;-27
2022/05/21 12:29:40;;;;;;;8.13;1.42;;;;;;;;;;5034227;28;20064;-28
2022/05/21 12:32:12;;;;;;;3.13;1.13;;;;;;;;;;5033535;28;20492;-27
2022/05/21 12:35:00;;;;;;;9.77;2.42;;;;;;;;;;5034383;28;20535;-28
2022/05/21 12:37:30;;;;;;;7.43;2.10;;;;;;;;;;5025589;28;20045;-29
2022/05/21 12:40:02;;;;;;;7.07;1.60;;;;;;;;;;5013838;28;20081;-28
2022/05/21 12:42:43;;;;;;;6.47;1.52;;;;;;;;;;5014313;28;20092;-28
2022/05/21 12:45:11;;;;;;;5.93;1.60;;;;;;;;;;5013491;28;20049;-28
2022/05/21 12:47:39;;;;;;;5.57;1.33;;;;;;;;;;5014195;28;20052;-28
2022/05/21 12:50:13;;;;;;;8.10;1.75;;;;;;;;;;5015169;28;20101;-28
2022/05/21 12:52:46;;;;;;;5.68;1.25;;;;;;;;;;5013910;28;20049;-27
2022/05/21 12:55:14;;;;;;;6.78;1.42;;;;;;;;;;5013575;28;20056;-27
2022/05/21 12:57:40;;;;;;;8.80;1.88;;;;;;;;;;4996688;28;20054;-27
2022/05/21 13:00:07;;;;;;;6.38;1.45;;;;;;;;;;5014316;28;20045;-27
2022/05/21 13:02:40;;;;;;;5.65;1.08;;;;;;;;;;5013995;28;20046;-27
2022/05/21 13:05:07;;;;;;;5.90;1.83;;;;;;;;;;5014191;28;20048;-27
2022/05/21 13:07:43;;;;;;;4.20;0.90;;;;;;;;;;5014421;28;20523;-27
2022/05/21 13:10:12;;;;;;;7.55;1.00;;;;;;;;;;5013303;28;20390;-27
2022/05/21 13:12:50;;;;;;;5.95;1.38;;;;;;;;;;5021819;28;20120;-28
2022/05/21 13:15:22;;;;;;;6.20;1.60;;;;;;;;;;5032924;28;20150;-28
2022/05/21 13:17:54;;;;;;;12.52;2.42;;;;;;;;;;5033575;28;20045;-27
2022/05/21 13:20:27;;;;;;;4.88;1.13;;;;;;;;;;5034105;28;20099;-27
2022/05/21 13:23:02;;;;;;;6.22;1.52;;;;;;;;;;5031906;28;20045;-27
2022/05/21 13:25:28;;;;;;;10.10;1.58;;;;;;;;;;5034006;28;20045;-27
2022/05/21 13:27:55;;;;;;;6.85;1.23;;;;;;;;;;5033471;28;20092;-27
2022/05/21 13:30:28;;;;;;;8.73;2.25;;;;;;;;;;5032067;28;20468;-27
2022/05/21 13:32:58;;;;;;;9.93;2.15;;;;;;;;;;5016358;28;20046;-28
2022/05/21 13:35:27;;;;;;;10.77;2.08;;;;;;;;;;5014068;28;20097;-27
2022/05/21 13:37:54;;;;;;;9.38;1.30;;;;;;;;;;5013653;28;20050;-28
2022/05/21 13:40:46;;;;;;;11.60;1.83;;;;;;;;;;5013625;28;20052;-27
2022/05/21 13:43:13;;;;;;;7.25;1.80;;;;;;;;;;5014226;28;20046;-28
2022/05/21 13:45:44;;;;;;;6.60;1.20;;;;;;;;;;5032016;28;20051;-27
2022/05/21 13:48:13;;;;;;;8.40;1.30;;;;;;;;;;5033318;28;20046;-27
2022/05/21 13:50:39;;;;;;;9.63;1.58;;;;;;;;;;5033238;28;20092;-27
2022/05/21 13:53:06;;;;;;;9.48;1.90;;;;;;;;;;5033103;28;20045;-27
2022/05/21 13:55:33;;;;;;;6.82;1.45;;;;;;;;;;5018543;28;20050;-27
2022/05/21 13:58:18;;;;;;;7.35;1.50;;;;;;;;;;5017488;28;20049;-27
2022/05/21 14:00:44;;;;;;;8.15;1.70;;;;;;;;;;5024233;28;20050;-27
2022/05/21 14:03:33;;;;;;;6.65;1.58;;;;;;;;;;5013442;28;20042;-28
2022/05/21 14:06:01;;;;;;;11.40;2.15;;;;;;;;;;5032175;28;20050;-27
2022/05/21 14:08:35;;;;;;;4.95;1.45;;;;;;;;;;5037237;28;20053;-28
2022/05/21 14:11:15;;;;;;;8.70;1.83;;;;;;;;;;5030754;28;20497;-27
2022/05/21 14:13:43;;;;;;;6.82;1.60;;;;;;;;;;5025003;28;20440;-28
2022/05/21 14:16:31;;;;;;;7.82;1.80;;;;;;;;;;5028166;28;20042;-27
2022/05/21 14:19:16;;;;;;;10.02;1.80;;;;;;;;;;5020850;28;20058;-28
2022/05/21 14:22:01;;;;;;;8.38;2.50;;;;;;;;;;5026074;28;20049;-27
2022/05/21 14:24:31;;;;;;;8.27;1.88;;;;;;;;;;5028024;28;20049;-27
2022/05/21 14:27:16;;;;;;;14.52;2.35;;;;;;;;;;5028810;28;20052;-27
2022/05/21 14:29:45;;;;;;;11.63;2.10;;;;;;;;;;5025289;28;20486;-28
2022/05/21 14:32:30;;;;;;;13.55;2.17;;;;;;;;;;5021575;28;20081;-28
2022/05/21 14:35:15;;;;;;;9.60;2.28;;;;;;;;;;5036434;28;20042;-27
2022/05/21 14:37:41;;;;;;;11.25;2.05;;;;;;;;;;5036327;28;20049;-27
2022/05/21 14:40:11;;;;;;;9.57;2.40;;;;;;;;;;5036284;28;20042;-27
2022/05/21 14:42:37;;;;;;;13.18;2.10;;;;;;;;;;5020355;28;20054;-28
2022/05/21 14:45:26;;;;;;;10.57;2.38;;;;;;;;;;5015262;28;20092;-27
2022/05/21 14:47:52;;;;;;;7.72;1.80;;;;;;;;;;5013148;28;20584;-28
2022/05/21 14:53:13;;;;;;;12.88;2.03;;;;;;;;;;5016844;28;20104;-27
2022/05/21 14:55:41;;;;;;;13.93;2.70;;;;;;;;;;5016236;28;20445;-28
2022/05/21 14:58:07;;;;;;;8.60;1.85;;;;;;;;;;5015289;28;20050;-27
2022/05/21 15:00:35;;;;;;;11.57;2.75;;;;;;;;;;5016080;28;20050;-27